createdAt,value
2022-10-12T00:01:56.738Z,12.70
2022-10-12T00:04:29.455Z,11.37
2022-10-12T00:07:04.624Z,10.40
2022-10-12T00:09:37.799Z,12.03
2022-10-12T00:12:13.967Z,9.00
2022-10-12T00:14:44.928Z,8.67
2022-10-12T00:17:15.046Z,10.97
2022-10-12T00:19:47.455Z,9.17
2022-10-12T00:22:22.651Z,13.83
2022-10-12T00:24:53.009Z,13.03
2022-10-12T00:27:26.238Z,14.83
2022-10-12T00:29:56.312Z,14.03
2022-10-12T00:32:29.163Z,12.20
2022-10-12T00:35:01.209Z,12.77
2022-10-12T00:37:34.142Z,10.47
2022-10-12T00:40:04.499Z,11.83
2022-10-12T00:42:38.102Z,8.93
2022-10-12T00:45:12.103Z,11.60
2022-10-12T00:47:49.833Z,8.93
2022-10-12T00:50:32.896Z,9.57
2022-10-12T00:53:12.413Z,10.87
2022-10-12T00:55:56.934Z,10.53
2022-10-12T00:58:30.423Z,11.20
2022-10-12T01:01:03.411Z,12.67
2022-10-12T01:03:40.823Z,9.33
2022-10-12T01:06:12.100Z,10.13
2022-10-12T01:08:46.163Z,16.47
2022-10-12T01:11:18.599Z,7.80
2022-10-12T01:13:48.689Z,9.83
2022-10-12T01:16:27.570Z,12.13
2022-10-12T01:19:20.679Z,10.77
2022-10-12T01:22:03.247Z,13.27
2022-10-12T01:24:55.382Z,13.53
2022-10-12T01:27:49.833Z,14.67
2022-10-12T01:30:39.342Z,15.80
2022-10-12T01:33:38.364Z,14.40
2022-10-12T01:36:15.765Z,14.50
2022-10-12T01:38:56.348Z,14.27
2022-10-12T01:41:34.959Z,14.67
2022-10-12T01:44:05.385Z,13.20
2022-10-12T01:46:57.344Z,10.23
2022-10-12T01:49:32.130Z,14.93
2022-10-12T01:52:27.369Z,10.10
2022-10-12T01:55:16.028Z,9.50
2022-10-12T01:58:07.647Z,13.43
2022-10-12T02:01:01.108Z,13.00
2022-10-12T02:03:49.519Z,9.77
2022-10-12T02:06:23.992Z,12.97
2022-10-12T02:09:08.863Z,11.83
2022-10-12T02:11:44.048Z,12.60
2022-10-12T02:14:20.381Z,13.73
2022-10-12T02:17:06.971Z,10.83
2022-10-12T02:19:46.574Z,12.40
2022-10-12T02:22:19.680Z,12.27
2022-10-12T02:24:56.344Z,9.97
2022-10-12T02:27:29.495Z,9.47
2022-10-12T02:30:02.720Z,12.37
2022-10-12T02:32:43.672Z,9.83
2022-10-12T02:35:28.580Z,12.97
2022-10-12T02:38:12.390Z,12.63
2022-10-12T02:40:54.452Z,10.60
2022-10-12T02:43:39.542Z,9.53
2022-10-12T02:46:20.990Z,10.33
2022-10-12T02:48:55.280Z,10.87
2022-10-12T02:51:30.606Z,7.43
2022-10-12T02:54:01.340Z,9.70
2022-10-12T02:56:31.797Z,6.27
2022-10-12T02:59:04.935Z,9.33
2022-10-12T03:01:35.129Z,11.63
2022-10-12T03:04:05.250Z,9.13
2022-10-12T03:06:42.564Z,11.33
2022-10-12T03:09:12.754Z,7.70
2022-10-12T03:11:43.985Z,9.27
2022-10-12T03:14:15.252Z,9.10
2022-10-12T03:16:46.629Z,19.30
2022-10-12T03:19:22.471Z,11.33
2022-10-12T03:22:02.886Z,7.23
2022-10-12T03:24:35.738Z,7.53
2022-10-12T03:27:08.277Z,8.20
2022-10-12T03:29:38.311Z,6.57
2022-10-12T03:32:08.590Z,10.00
2022-10-12T03:34:41.390Z,10.47
2022-10-12T03:37:16.957Z,11.43
2022-10-12T03:39:47.138Z,9.23
2022-10-12T03:42:17.241Z,9.13
2022-10-12T03:44:47.363Z,9.40
2022-10-12T03:47:20.325Z,6.53
2022-10-12T03:49:50.415Z,8.73
2022-10-12T03:52:23.127Z,9.80
2022-10-12T03:54:56.263Z,8.50
2022-10-12T03:57:26.399Z,8.33
2022-10-12T03:59:56.491Z,11.63
2022-10-12T04:02:26.619Z,9.03
2022-10-12T04:04:56.723Z,7.97
2022-10-12T04:07:37.152Z,9.70
2022-10-12T04:10:12.044Z,10.17
2022-10-12T04:12:42.202Z,7.20
2022-10-12T04:15:13.474Z,8.37
2022-10-12T04:17:50.999Z,8.77
2022-10-12T04:20:21.528Z,8.10
2022-10-12T04:22:57.282Z,6.47
2022-10-12T04:25:30.485Z,7.83
2022-10-12T04:28:00.626Z,9.73
2022-10-12T04:30:30.813Z,9.87
2022-10-12T04:33:07.734Z,9.47
2022-10-12T04:35:37.856Z,8.73
2022-10-12T04:38:10.525Z,10.37
2022-10-12T04:40:49.227Z,8.30
2022-10-12T04:43:22.729Z,7.87
2022-10-12T04:45:58.799Z,7.27
2022-10-12T04:48:31.818Z,8.27
2022-10-12T04:51:09.770Z,9.80
2022-10-12T04:53:42.655Z,9.40
2022-10-12T04:56:12.936Z,9.60
2022-10-12T04:58:43.027Z,7.43
2022-10-12T05:01:13.355Z,10.47
2022-10-12T05:03:48.311Z,8.93
2022-10-12T05:06:18.516Z,8.47
2022-10-12T05:08:51.195Z,7.40
2022-10-12T05:11:22.131Z,7.30
2022-10-12T05:13:59.567Z,8.63
2022-10-12T05:16:34.767Z,7.10
2022-10-12T05:19:04.918Z,8.83
2022-10-12T05:21:35.855Z,10.73
2022-10-12T05:24:25.406Z,8.63
2022-10-12T05:26:58.272Z,12.60
2022-10-12T05:29:31.570Z,12.03
2022-10-12T05:32:04.409Z,7.63
2022-10-12T05:34:34.679Z,10.30
2022-10-12T05:37:04.810Z,11.70
2022-10-12T05:39:37.603Z,6.23
2022-10-12T05:42:07.886Z,9.17
2022-10-12T05:44:44.184Z,7.97
2022-10-12T05:47:16.740Z,7.00
2022-10-12T05:49:46.873Z,9.50
2022-10-12T05:52:20.180Z,8.83
2022-10-12T05:54:52.870Z,11.00
2022-10-12T05:57:25.229Z,7.13
2022-10-12T05:59:58.464Z,8.43
2022-10-12T06:02:31.422Z,8.93
2022-10-12T06:05:12.053Z,8.73
2022-10-12T06:07:44.785Z,11.03
2022-10-12T06:10:17.457Z,7.83
2022-10-12T06:12:47.698Z,10.53
2022-10-12T06:15:18.008Z,10.83
2022-10-12T06:17:53.689Z,11.53
2022-10-12T06:20:23.881Z,8.17
2022-10-12T06:22:56.143Z,9.33
2022-10-12T06:25:29.096Z,9.57
2022-10-12T06:28:05.382Z,7.43
2022-10-12T06:30:44.411Z,6.97
2022-10-12T06:33:14.614Z,7.23
2022-10-12T06:35:44.771Z,8.97
2022-10-12T06:38:17.978Z,8.63
2022-10-12T06:40:56.027Z,8.00
2022-10-12T06:43:26.251Z,8.30
2022-10-12T06:45:58.399Z,8.07
2022-10-12T06:48:28.616Z,6.73
2022-10-12T06:50:58.897Z,9.27
2022-10-12T06:53:33.092Z,8.07
2022-10-12T06:56:09.434Z,9.77
2022-10-12T06:58:40.040Z,9.47
2022-10-12T07:01:12.630Z,7.60
2022-10-12T07:03:43.094Z,13.97
2022-10-12T07:06:16.923Z,10.57
2022-10-12T07:08:50.333Z,14.00
2022-10-12T07:11:23.437Z,7.20
2022-10-12T07:13:53.547Z,11.43
2022-10-12T07:16:23.802Z,10.10
2022-10-12T07:18:53.915Z,9.53
2022-10-12T07:21:23.969Z,7.57
2022-10-12T07:23:57.924Z,6.27
2022-10-12T07:26:32.787Z,8.93
2022-10-12T07:29:05.599Z,8.83
2022-10-12T07:31:35.634Z,4.70
2022-10-12T07:34:06.386Z,6.45
2022-10-12T07:36:58.754Z,4.20
2022-10-12T07:39:30.034Z,4.53
2022-10-12T07:42:05.108Z,4.82
2022-10-12T07:44:35.487Z,5.78
2022-10-12T07:47:05.603Z,5.22
2022-10-12T07:49:35.725Z,4.60
2022-10-12T07:52:05.836Z,3.58
2022-10-12T07:54:39.293Z,5.38
2022-10-12T07:57:12.203Z,4.93
2022-10-12T07:59:47.498Z,5.80
2022-10-12T08:02:17.780Z,5.20
2022-10-12T08:04:47.993Z,6.72
2022-10-12T08:07:18.228Z,5.05
2022-10-12T08:09:50.482Z,2.80
2022-10-12T08:12:23.287Z,4.70
2022-10-12T08:14:56.712Z,4.30
2022-10-12T08:17:30.123Z,5.07
2022-10-12T08:20:07.230Z,4.47
2022-10-12T08:22:40.004Z,5.93
2022-10-12T08:25:11.568Z,6.78
2022-10-12T08:27:44.353Z,5.50
2022-10-12T08:30:18.254Z,4.65
2022-10-12T08:32:48.687Z,5.13
2022-10-12T08:35:18.984Z,5.18
2022-10-12T08:37:49.391Z,4.15
2022-10-12T08:40:31.749Z,3.50
2022-10-12T08:43:23.509Z,4.72
2022-10-12T08:45:59.163Z,4.18
2022-10-12T08:48:37.323Z,5.40
2022-10-12T08:51:16.815Z,5.68
2022-10-12T08:53:57.083Z,6.30
2022-10-12T08:56:27.755Z,4.03
2022-10-12T08:59:06.467Z,4.53
2022-10-12T09:01:40.178Z,6.68
2022-10-12T09:04:36.470Z,3.92
2022-10-12T09:07:18.000Z,4.18
2022-10-12T09:10:08.609Z,4.60
2022-10-12T09:12:57.475Z,6.25
2022-10-12T09:15:49.191Z,4.00
2022-10-12T09:18:40.974Z,7.45
2022-10-12T09:21:21.930Z,6.57
2022-10-12T09:24:00.460Z,5.03
2022-10-12T09:26:38.249Z,4.72
2022-10-12T09:29:27.394Z,5.38
2022-10-12T09:32:33.538Z,5.40
2022-10-12T09:35:04.827Z,6.22
2022-10-12T09:37:38.459Z,7.15
2022-10-12T09:40:27.201Z,5.07
2022-10-12T09:43:02.858Z,5.22
2022-10-12T09:45:37.667Z,4.43
2022-10-12T09:48:33.647Z,4.38
2022-10-12T09:51:16.527Z,4.70
2022-10-12T09:53:57.614Z,6.50
2022-10-12T09:56:32.757Z,7.05
2022-10-12T09:59:08.497Z,9.95
2022-10-12T10:01:41.681Z,4.75
2022-10-12T10:04:25.640Z,5.30
2022-10-12T10:06:57.000Z,8.68
2022-10-12T10:09:34.499Z,5.80
2022-10-12T10:12:24.613Z,6.25
2022-10-12T10:15:00.048Z,4.43
2022-10-12T10:17:34.577Z,6.65
2022-10-12T10:20:25.048Z,5.10
2022-10-12T10:22:59.214Z,6.70
2022-10-12T10:25:34.218Z,4.55
2022-10-12T10:28:29.063Z,6.65
2022-10-12T10:31:04.342Z,4.53
2022-10-12T10:33:50.748Z,6.95
2022-10-12T10:36:27.802Z,7.50
2022-10-12T10:39:04.878Z,4.82
2022-10-12T10:41:41.282Z,9.10
2022-10-12T10:44:29.979Z,9.40
2022-10-12T10:47:04.878Z,7.10
2022-10-12T10:49:49.441Z,8.15
2022-10-12T10:52:29.796Z,8.65
2022-10-12T10:55:25.751Z,7.55
2022-10-12T10:58:08.455Z,10.10
2022-10-12T11:00:46.721Z,7.28
2022-10-12T11:03:28.490Z,8.90
2022-10-12T11:06:15.152Z,9.75
2022-10-12T11:09:02.020Z,7.38
2022-10-12T11:11:39.694Z,8.43
2022-10-12T11:14:19.884Z,9.52
2022-10-12T11:16:58.570Z,9.15
2022-10-12T11:19:39.771Z,7.35
2022-10-12T11:22:19.680Z,9.68
2022-10-12T11:25:05.019Z,8.13
2022-10-12T11:27:40.763Z,7.32
2022-10-12T11:30:19.895Z,10.77
2022-10-12T11:32:57.913Z,4.80
2022-10-12T11:35:35.139Z,9.82
2022-10-12T11:38:15.195Z,7.85
2022-10-12T11:41:05.959Z,6.80
2022-10-12T11:43:53.937Z,11.77
2022-10-12T11:46:35.022Z,8.50
2022-10-12T11:49:22.875Z,9.73
2022-10-12T11:51:59.378Z,11.90
2022-10-12T11:54:42.733Z,7.32
2022-10-12T11:57:26.480Z,6.65
2022-10-12T12:00:06.474Z,7.15
2022-10-12T12:02:45.711Z,9.48
2022-10-12T12:05:20.328Z,11.18
2022-10-12T12:07:53.950Z,6.15
2022-10-12T12:11:07.243Z,8.30
2022-10-12T12:13:42.350Z,11.63
2022-10-12T12:16:37.957Z,6.68
2022-10-12T12:19:36.150Z,5.93
2022-10-12T12:22:29.540Z,9.82
2022-10-12T12:25:23.546Z,7.35
2022-10-12T12:27:59.108Z,9.80
2022-10-12T12:30:43.634Z,6.93
2022-10-12T12:33:44.595Z,9.65
2022-10-12T12:36:29.485Z,5.72
2022-10-12T12:39:00.556Z,8.40
2022-10-12T12:41:56.488Z,8.43
2022-10-12T12:44:43.305Z,8.77
2022-10-12T12:47:46.109Z,11.05
2022-10-12T12:50:41.750Z,12.98
2022-10-12T12:53:21.432Z,8.32
2022-10-12T12:56:09.173Z,9.45
2022-10-12T12:59:22.665Z,7.22
2022-10-12T13:05:31.706Z,6.63
2022-10-12T13:08:25.488Z,13.35
2022-10-12T13:11:31.157Z,7.75
2022-10-12T13:14:21.331Z,9.23
2022-10-12T13:17:33.849Z,6.38
2022-10-12T13:20:21.117Z,9.63
2022-10-12T13:22:58.192Z,10.02
2022-10-12T13:25:38.704Z,7.32
2022-10-12T13:28:20.568Z,8.40
2022-10-12T13:30:57.938Z,7.63
2022-10-12T13:33:35.477Z,9.60
2022-10-12T13:36:21.854Z,5.93
2022-10-12T13:38:59.240Z,7.88
2022-10-12T13:41:32.346Z,9.43
2022-10-12T13:44:06.628Z,7.80
2022-10-12T13:46:49.422Z,9.05
2022-10-12T13:49:22.426Z,6.60
2022-10-12T13:51:59.566Z,8.65
2022-10-12T13:54:38.184Z,8.52
2022-10-12T13:57:23.849Z,8.05
2022-10-12T14:00:00.395Z,7.03
2022-10-12T14:02:35.405Z,8.60
2022-10-12T14:05:19.974Z,5.68
2022-10-12T14:07:55.343Z,6.68
2022-10-12T14:10:46.587Z,6.20
2022-10-12T14:13:25.156Z,5.75
2022-10-12T14:16:00.095Z,9.40
2022-10-12T14:18:42.443Z,5.90
2022-10-12T14:21:23.752Z,7.28
2022-10-12T14:24:00.286Z,9.50
2022-10-12T14:26:36.067Z,8.48
2022-10-12T14:29:34.810Z,8.95
2022-10-12T14:32:07.644Z,6.78
2022-10-12T14:34:46.535Z,6.32
2022-10-12T14:37:33.846Z,11.80
2022-10-12T14:40:40.075Z,7.68
2022-10-12T14:43:25.468Z,7.93
2022-10-12T14:45:55.680Z,7.72
2022-10-12T14:48:26.021Z,6.32
2022-10-12T14:50:56.407Z,7.40
2022-10-12T14:53:29.367Z,5.90
2022-10-12T14:56:02.108Z,8.07
2022-10-12T14:58:32.270Z,7.45
2022-10-12T15:01:02.423Z,7.03
2022-10-12T15:03:33.399Z,9.75
2022-10-12T15:06:03.579Z,6.57
2022-10-12T15:08:33.727Z,9.63
2022-10-12T15:11:06.617Z,6.45
2022-10-12T15:13:36.843Z,7.68
2022-10-12T15:16:13.085Z,6.53
2022-10-12T15:18:43.157Z,8.63
2022-10-12T15:21:15.770Z,10.75
2022-10-12T15:23:46.203Z,9.25
2022-10-12T15:26:25.044Z,9.48
2022-10-12T15:29:00.617Z,15.07
2022-10-12T15:31:30.745Z,10.25
2022-10-12T15:34:03.795Z,8.38
2022-10-12T15:36:37.726Z,9.25
2022-10-12T15:39:10.263Z,12.63
2022-10-12T15:41:42.948Z,13.02
2022-10-12T15:44:15.042Z,9.63
2022-10-12T15:46:53.232Z,8.05
2022-10-12T15:49:24.668Z,9.93
2022-10-12T15:51:57.493Z,7.70
2022-10-12T15:54:27.632Z,11.25
2022-10-12T15:57:03.671Z,8.65
2022-10-12T15:59:36.666Z,10.82
2022-10-12T16:02:06.858Z,11.02
2022-10-12T16:04:38.327Z,10.05
2022-10-12T16:07:12.158Z,5.38
2022-10-12T16:09:42.588Z,9.95
2022-10-12T16:12:15.282Z,9.98
2022-10-12T16:14:53.700Z,7.85
2022-10-12T16:17:26.491Z,9.23
2022-10-12T16:19:59.596Z,6.88
2022-10-12T16:22:29.681Z,10.82
2022-10-12T16:25:05.249Z,11.48
2022-10-12T16:27:38.159Z,8.60
2022-10-12T16:30:11.008Z,9.95
2022-10-12T16:32:43.490Z,13.32
2022-10-12T16:35:14.751Z,14.82
2022-10-12T16:37:51.282Z,8.57
2022-10-12T16:40:21.872Z,7.50
2022-10-12T16:42:57.669Z,8.65
2022-10-12T16:45:30.433Z,10.30
2022-10-12T16:48:07.678Z,9.77
2022-10-12T16:50:40.494Z,9.68
2022-10-12T16:53:11.264Z,13.45
2022-10-12T16:55:41.963Z,11.23
2022-10-12T16:58:14.616Z,13.57
2022-10-12T17:00:47.876Z,17.00
2022-10-12T17:03:20.582Z,16.35
2022-10-12T17:05:50.741Z,16.65
2022-10-12T17:08:20.839Z,12.13
2022-10-12T17:10:54.038Z,9.80
2022-10-12T17:13:32.912Z,13.50
2022-10-12T17:16:27.295Z,12.77
2022-10-12T17:18:59.649Z,16.95
2022-10-12T17:21:30.053Z,15.55
2022-10-12T17:24:04.797Z,14.57
2022-10-12T17:26:40.101Z,18.17
2022-10-12T17:29:18.286Z,14.60
2022-10-12T17:32:04.642Z,13.30
2022-10-12T17:34:38.143Z,12.50
2022-10-12T17:37:11.145Z,16.88
2022-10-12T17:39:44.976Z,11.63
2022-10-12T17:42:16.090Z,14.43
2022-10-12T17:44:50.921Z,14.40
2022-10-12T17:47:21.180Z,13.48
2022-10-12T17:49:51.327Z,13.18
2022-10-12T17:52:24.086Z,28.50
2022-10-12T17:54:54.272Z,11.88
2022-10-12T17:57:24.474Z,12.57
2022-10-12T17:59:57.159Z,11.88
2022-10-12T18:02:27.242Z,13.40
2022-10-12T18:04:57.575Z,15.07
2022-10-12T18:07:27.800Z,14.80
2022-10-12T18:10:00.298Z,14.55
2022-10-12T18:12:30.608Z,16.98
2022-10-12T18:15:03.565Z,20.88
2022-10-12T18:17:36.788Z,17.13
2022-10-12T18:20:08.024Z,12.95
2022-10-12T18:22:40.435Z,13.40
2022-10-12T18:25:15.542Z,21.73
2022-10-12T18:27:46.989Z,37.08
2022-10-12T18:30:20.056Z,34.58
2022-10-12T18:32:50.164Z,17.50
2022-10-12T18:35:23.336Z,14.63
2022-10-12T18:38:00.495Z,13.27
2022-10-12T18:40:33.259Z,24.80
2022-10-12T18:43:05.556Z,20.20
2022-10-12T18:45:47.596Z,20.30
2022-10-12T18:48:20.569Z,23.25
2022-10-12T18:50:53.110Z,15.77
2022-10-12T18:53:28.123Z,28.77
2022-10-12T18:56:00.726Z,29.58
2022-10-12T18:58:31.232Z,31.95
2022-10-12T19:01:13.096Z,24.38
2022-10-12T19:03:43.545Z,30.80
2022-10-12T19:06:22.687Z,43.78
2022-10-12T19:08:56.191Z,39.13
2022-10-12T19:11:29.447Z,24.90
2022-10-12T19:14:03.649Z,25.08
2022-10-12T19:16:38.312Z,22.63
2022-10-12T19:19:11.846Z,17.48
2022-10-12T19:21:44.346Z,17.42
2022-10-12T19:24:17.703Z,22.10
2022-10-12T19:26:48.346Z,16.00
2022-10-12T19:29:18.945Z,15.23
2022-10-12T19:31:53.993Z,17.48
2022-10-12T19:34:24.734Z,22.00
2022-10-12T19:36:56.410Z,21.08
2022-10-12T19:39:27.359Z,28.67
2022-10-12T19:41:57.519Z,39.05
2022-10-12T19:44:30.734Z,40.10
2022-10-12T19:47:03.651Z,33.25
2022-10-12T19:49:37.242Z,23.67
2022-10-12T19:52:08.419Z,18.55
2022-10-12T19:54:38.584Z,19.77
2022-10-12T19:57:08.719Z,15.43
2022-10-12T19:59:38.779Z,14.93
2022-10-12T20:02:13.487Z,13.77
2022-10-12T20:04:43.756Z,14.57
2022-10-12T20:07:19.784Z,15.02
2022-10-12T20:09:50.507Z,13.02
2022-10-12T20:12:21.036Z,14.63
2022-10-12T20:14:51.368Z,15.07
2022-10-12T20:17:24.184Z,19.38
2022-10-12T20:19:55.502Z,16.40
2022-10-12T20:22:25.628Z,19.33
2022-10-12T20:24:55.784Z,20.38
2022-10-12T20:27:26.050Z,18.13
2022-10-12T20:29:56.076Z,17.30
2022-10-12T20:32:28.871Z,19.13
2022-10-12T20:34:59.023Z,20.63
2022-10-12T20:37:29.154Z,17.27
2022-10-12T20:39:59.271Z,17.15
2022-10-12T20:42:30.132Z,19.57
2022-10-12T20:45:00.176Z,15.40
2022-10-12T20:47:33.051Z,18.92
2022-10-12T20:50:03.227Z,19.60
2022-10-12T20:52:33.958Z,18.03
2022-10-12T20:55:08.579Z,15.13
2022-10-12T20:57:41.980Z,13.50
2022-10-12T21:00:13.659Z,12.20
2022-10-12T21:02:46.551Z,14.23
2022-10-12T21:05:22.118Z,12.37
2022-10-12T21:07:54.862Z,13.27
2022-10-12T21:10:28.212Z,17.50
2022-10-12T21:12:58.652Z,15.63
2022-10-12T21:15:28.877Z,15.23
2022-10-12T21:18:03.762Z,13.53
2022-10-12T21:20:36.904Z,18.23
2022-10-12T21:23:09.759Z,14.73
2022-10-12T21:25:39.803Z,16.40
2022-10-12T21:28:09.927Z,15.33
2022-10-12T21:30:43.247Z,15.60
2022-10-12T21:33:17.263Z,18.07
2022-10-12T21:35:47.435Z,16.30
2022-10-12T21:38:18.226Z,14.10
2022-10-12T21:40:48.999Z,14.70
2022-10-12T21:43:19.116Z,15.23
2022-10-12T21:45:49.192Z,13.83
2022-10-12T21:48:29.119Z,19.23
2022-10-12T21:50:59.746Z,16.90
2022-10-12T21:53:32.431Z,17.13
2022-10-12T21:56:09.878Z,17.53
2022-10-12T21:58:40.117Z,16.23
2022-10-12T22:01:13.566Z,14.97
2022-10-12T22:03:48.328Z,16.97
2022-10-12T22:06:24.137Z,17.27
2022-10-12T22:08:57.898Z,19.07
2022-10-12T22:11:30.037Z,16.73
2022-10-12T22:14:03.082Z,16.73
2022-10-12T22:16:33.718Z,14.13
2022-10-12T22:19:14.257Z,13.70
2022-10-12T22:21:47.949Z,13.73
2022-10-12T22:24:18.718Z,16.93
2022-10-12T22:26:49.327Z,15.50
2022-10-12T22:29:19.583Z,16.83
2022-10-12T22:32:01.887Z,19.40
2022-10-12T22:34:37.575Z,15.40
2022-10-12T22:37:08.171Z,16.70
2022-10-12T22:39:47.003Z,20.90
2022-10-12T22:42:17.532Z,16.70
2022-10-12T22:44:47.803Z,15.57
2022-10-12T22:47:21.135Z,15.00
2022-10-12T22:49:56.665Z,16.77
2022-10-12T22:52:26.908Z,14.47
2022-10-12T22:55:09.930Z,15.43
2022-10-12T22:57:40.138Z,15.37
2022-10-12T23:00:12.435Z,15.90
2022-10-12T23:02:42.581Z,15.60
2022-10-12T23:05:15.347Z,17.27
2022-10-12T23:07:45.555Z,19.00
2022-10-12T23:10:18.002Z,14.70
2022-10-12T23:12:50.711Z,17.13
2022-10-12T23:15:21.430Z,16.47
2022-10-12T23:17:54.352Z,15.30
2022-10-12T23:20:32.269Z,17.63
2022-10-12T23:23:05.607Z,16.70
2022-10-12T23:25:35.719Z,20.40
2022-10-12T23:28:06.059Z,16.60
2022-10-12T23:30:36.140Z,17.43
2022-10-12T23:33:06.759Z,18.47
2022-10-12T23:35:39.492Z,15.97
2022-10-12T23:38:12.584Z,17.23
2022-10-12T23:40:45.016Z,15.63
2022-10-12T23:43:21.482Z,18.53
2022-10-12T23:45:51.935Z,16.00
2022-10-12T23:48:26.208Z,15.47
2022-10-12T23:50:59.032Z,14.20
2022-10-12T23:53:29.770Z,14.60
2022-10-12T23:55:59.988Z,14.93
2022-10-12T23:58:33.079Z,15.77
